Latest Weather Observations for Port Macquarie Airport

IDN60801

Issued at 8:11 pm EDT Sunday 29 March 2015 (issued every 30 minutes, with the page automatically refreshed every 10 minutes)

About weather observations | Map of weather stations | Latest weather observations for NSW | Other Formats
Station Details ID: 060139 Name: PORT MACQUARIE AIRPORT AWS Lat: -31.43 Lon: 152.87 Height: 4.2 m
Data from the previous 72 hours. | See also: Recent months at Port Macquarie Airport
Date/Time
EDT
Temp
°C
App
Temp
°C
Dew
Point
Rel
Hum
%
Delta-T
°C
Wind Press
QNH
hPa
Press
MSL
hPa
Rain
since 9 am
mm
Dir
 
Spd
km/h
Gust
km/h
Spd
kts
Gust
kts
29/08:00pm 22.8 24.8 19.2 80 2.3 NE 7 9 4 5 1022.1 1022.1 0.0
29/07:30pm 23.2 24.9 19.4 79 2.4 NNE 9 13 5 7 1021.8 1021.8 0.0
29/07:00pm 23.4 25.0 19.1 77 2.7 NE 9 13 5 7 1021.5 1021.5 0.0
29/06:30pm 24.1 25.7 19.2 74 3.1 NE 9 15 5 8 1021.4 1021.4 0.0
29/06:00pm 24.4 24.5 18.3 69 3.8 NE 15 20 8 11 1021.1 1021.1 0.0
29/05:30pm 24.9 24.6 18.3 66 4.2 NE 17 20 9 11 1020.6 1020.6 0.0
29/05:00pm 25.0 24.0 18.0 65 4.4 ENE 20 28 11 15 1020.2 1020.2 0.0
29/04:30pm 25.1 25.0 18.8 68 4.0 NE 17 24 9 13 1020.4 1020.4 0.0
29/04:00pm 25.4 24.9 18.6 66 4.3 ENE 19 24 10 13 1020.5 1020.5 0.0
29/03:30pm 25.5 25.0 19.2 68 4.0 E 20 26 11 14 1020.6 1020.6 0.0
29/03:00pm 25.5 24.7 18.4 65 4.5 E 20 24 11 13 1021.0 1021.0 0.0
29/02:30pm 25.7 25.0 18.6 65 4.5 E 20 26 11 14 1021.2 1021.2 0.0
29/02:00pm 24.8 24.7 18.7 69 3.9 ENE 17 24 9 13 1021.6 1021.6 0.0
29/01:30pm 25.2 24.3 17.7 63 4.7 ENE 19 26 10 14 1021.7 1021.7 0.0
29/01:00pm 24.9 24.4 16.9 61 4.9 ENE 15 20 8 11 1022.5 1022.5 0.0
29/12:30pm 25.4 25.6 17.6 62 4.9 ENE 13 20 7 11 1022.7 1022.7 0.0
29/12:00pm 24.9 25.2 16.9 61 4.9 NE 11 15 6 8 1022.7 1022.7 0.0
29/11:30am 25.2 25.9 17.1 60 5.0 NE 9 13 5 7 1022.9 1022.9 0.0
29/11:00am 24.0 25.3 17.0 65 4.3 NW 6 11 3 6 1023.5 1023.5 0.0
29/10:30am 22.8 23.9 16.6 68 3.8 W 6 11 3 6 1023.9 1023.9 0.0
29/10:00am 21.4 21.3 15.9 71 3.3 WNW 11 15 6 8 1024.1 1024.1 0.0
29/09:30am 20.1 20.5 16.3 79 2.3 W 9 13 5 7 1023.9 1023.9 0.0
29/09:00am 18.8 18.1 15.3 80 2.0 WNW 13 17 7 9 1023.7 1023.7 0.0
29/08:30am 18.0 18.5 15.1 83 1.7 W 6 11 3 6 1023.2 1023.2 0.0
29/08:00am 16.6 16.7 14.4 87 1.3 W 7 11 4 6 1022.9 1022.9 0.0
29/07:30am 16.1 16.2 14.5 90 0.9 W 7 11 4 6 1022.6 1022.6 0.0
29/07:00am 15.7 15.9 14.1 90 0.9 W 6 7 3 4 1022.4 1022.4 0.0
29/06:30am 15.9 16.4 14.1 89 1.0 WSW 4 7 2 4 1022.1 1022.1 0.0
29/06:00am 16.0 16.8 13.8 87 1.2 W 2 7 1 4 1021.7 1021.7 0.0
29/05:30am 16.3 16.5 14.1 87 1.2 SW 6 9 3 5 1021.5 1021.5 0.0
29/05:00am 16.4 16.5 14.4 88 1.1 W 7 9 4 5 1021.4 1021.4 0.0
29/04:30am 16.0 16.0 14.2 89 1.0 WSW 7 11 4 6 1021.3 1021.3 0.0
29/04:00am 15.2 15.5 13.4 89 1.0 WSW 4 7 2 4 1021.3 1021.3 0.0
29/03:30am 15.9 16.8 13.9 88 1.1 W 2 6 1 3 1021.5 1021.5 0.0
29/03:00am 16.1 16.3 14.3 89 1.0 WSW 6 11 3 6 1021.6 1021.6 0.0
29/02:30am 16.3 16.1 14.7 90 0.9 WNW 9 15 5 8 1021.8 1021.8 0.0
29/02:00am 15.7 15.9 14.2 91 0.8 SW 6 7 3 4 1021.9 1021.9 0.0
29/01:30am 15.8 17.0 13.8 88 1.1 CALM 0 7 0 4 1022.0 1022.0 0.0
29/01:00am 16.6 18.1 14.6 88 1.1 CALM 0 0 0 0 1022.3 1022.3 0.0
29/12:30am 17.5 19.1 15.0 85 1.5 CALM 0 0 0 0 1022.4 1022.4 0.0
29/12:00am 17.6 19.2 14.9 84 1.6 CALM 0 0 0 0 1022.7 1022.7 0.0
 
Date/Time
EDT
Temp
°C
App
Temp
°C
Dew
Point
Rel
Hum
%
Delta-T
°C
Wind Press
QNH
hPa
Press
MSL
hPa
Rain
since 9 am
mm
Dir
 
Spd
km/h
Gust
km/h
Spd
kts
Gust
kts
28/11:30pm 18.1 19.8 15.2 83 1.7 CALM 0 0 0 0 1022.8 1022.8 0.0
28/11:00pm 18.3 18.7 14.8 80 2.0 W 6 7 3 4 1023.1 1023.1 0.0
28/10:30pm 18.3 19.3 15.4 83 1.7 W 4 7 2 4 1023.2 1023.2 0.0
28/10:00pm 18.1 18.7 15.7 86 1.4 WNW 7 9 4 5 1023.2 1023.2 0.0
28/09:30pm 17.8 19.4 16.0 89 1.1 NNW 2 7 1 4 1023.0 1023.0 0.0
28/09:00pm 17.0 18.7 15.2 89 1.0 CALM 0 0 0 0 1022.5 1022.5 0.0
28/08:30pm 17.0 18.1 14.6 86 1.4 WSW 2 7 1 4 1022.1 1022.1 0.0
28/08:00pm 18.0 19.4 15.4 85 1.5 S 2 9 1 5 1021.9 1021.9 0.0
28/07:30pm 18.8 20.4 14.9 78 2.3 CALM 0 0 0 0 1021.6 1021.6 0.0
28/07:00pm 20.7 21.0 14.6 68 3.6 S 6 7 3 4 1021.2 1021.2 0.0
28/06:30pm 21.8 21.1 14.4 63 4.3 SSE 11 17 6 9 1021.1 1021.1 0.0
28/06:00pm 22.6 21.5 14.2 59 4.9 SSE 13 19 7 10 1020.8 1020.8 0.0
28/05:30pm 22.9 20.5 13.9 57 5.3 SE 19 24 10 13 1020.7 1020.7 0.0
28/05:00pm 23.9 22.5 14.6 56 5.5 SSE 15 22 8 12 1020.5 1020.5 0.0
28/04:30pm 23.8 21.3 13.6 52 5.9 SSE 19 26 10 14 1020.5 1020.5 0.0
28/04:00pm 24.2 22.2 14.0 53 6.0 SSE 17 24 9 13 1020.6 1020.6 0.0
28/03:30pm 24.2 22.3 14.3 54 5.8 SSE 17 24 9 13 1020.8 1020.8 0.0
28/03:00pm 24.9 23.3 15.0 54 5.9 SSE 17 22 9 12 1020.8 1020.8 0.0
28/02:30pm 24.5 23.2 14.9 55 5.7 SSE 15 22 8 12 1021.0 1021.0 0.0
28/02:00pm 23.4 21.3 13.6 54 5.7 SE 17 24 9 13 1021.2 1021.2 0.0
28/01:30pm 23.5 22.3 13.9 55 5.6 SE 13 22 7 12 1021.5 1021.5 0.0
28/01:00pm 24.4 23.3 14.2 53 6.0 E 13 19 7 10 1021.7 1021.7 0.0
28/12:30pm 23.2 21.8 13.4 54 5.7 SSE 13 20 7 11 1022.1 1022.1 0.0
28/12:00pm 23.5 22.0 13.1 52 6.0 SSW 13 20 7 11 1022.4 1022.4 0.0
28/11:30am 23.4 21.9 13.0 52 6.0 SW 13 19 7 10 1022.7 1022.7 0.0
28/11:00am 23.2 21.5 13.7 55 5.5 SSW 15 20 8 11 1022.9 1022.9 0.0
28/10:30am 21.8 20.0 12.1 54 5.5 SW 13 22 7 12 1022.9 1022.9 0.0
28/10:00am 20.8 19.0 12.2 58 4.8 W 13 17 7 9 1022.9 1022.9 0.0
28/09:30am 19.1 17.2 11.7 62 4.1 W 13 17 7 9 1022.9 1022.9 0.0
28/09:00am 17.6 16.3 11.4 67 3.4 WSW 9 11 5 6 1022.6 1022.6 0.0
28/08:30am 16.0 13.5 11.2 73 2.6 WNW 15 19 8 10 1022.4 1022.4 0.0
28/08:00am 14.4 14.7 10.8 79 1.9 CALM 0 7 0 4 1022.0 1022.0 0.0
28/07:30am 13.2 11.8 10.9 86 1.2 WSW 9 13 5 7 1021.3 1021.3 0.0
28/07:00am 12.2 11.0 10.4 89 0.9 WSW 7 9 4 5 1021.0 1021.0 0.0
28/06:30am 11.8 10.2 10.2 90 0.8 WSW 9 11 5 6 1020.8 1020.8 0.0
28/06:00am 11.9 12.0 10.1 89 0.9 CALM 0 0 0 0 1020.3 1020.3 0.0
28/05:30am 13.0 11.7 11.1 88 1.0 WSW 9 13 5 7 1019.8 1019.8 0.0
28/05:00am 12.9 11.2 11.3 90 0.8 WSW 11 13 6 7 1019.5 1019.5 0.0
28/04:30am 13.1 11.8 11.2 88 1.0 WSW 9 11 5 6 1019.4 1019.4 0.0
28/04:00am 13.4 12.7 11.5 88 1.0 W 6 9 3 5 1019.3 1019.3 0.0
28/03:30am 13.4 13.5 11.6 89 1.0 WSW 2 6 1 3 1019.3 1019.3 0.0
28/03:00am 13.6 11.8 12.2 91 0.8 WNW 13 15 7 8 1019.4 1019.4 0.0
28/02:30am 13.0 12.3 11.9 93 0.6 WNW 7 11 4 6 1019.5 1019.5 0.0
28/02:00am 12.7 13.2 11.6 93 0.6 CALM 0 0 0 0 1019.8 1019.8 0.0
28/01:30am 12.7 13.1 11.4 92 0.7 CALM 0 0 0 0 1019.8 1019.8 0.0
28/01:00am 13.0 13.2 11.9 93 0.6 SSW 2 6 1 3 1019.9 1019.9 0.0
28/12:30am 13.1 13.3 12.0 93 0.6 E 2 9 1 5 1020.0 1020.0 0.0
28/12:00am 13.4 14.1 12.3 93 0.6 CALM 0 0 0 0 1020.1 1020.1 0.0
 
Date/Time
EDT
Temp
°C
App
Temp
°C
Dew
Point
Rel
Hum
%
Delta-T
°C
Wind Press
QNH
hPa
Press
MSL
hPa
Rain
since 9 am
mm
Dir
 
Spd
km/h
Gust
km/h
Spd
kts
Gust
kts
27/11:30pm 13.4 14.1 12.3 93 0.6 CALM 0 0 0 0 1020.3 1020.3 0.0
27/11:00pm 13.4 14.1 12.1 92 0.7 CALM 0 0 0 0 1020.3 1020.3 0.0
27/10:30pm 13.8 14.5 12.2 90 0.9 CALM 0 0 0 0 1020.3 1020.3 0.0
27/10:00pm 14.5 15.4 13.0 91 0.8 CALM 0 0 0 0 1020.4 1020.4 0.0
27/09:30pm 14.8 15.0 13.0 89 1.0 E 4 7 2 4 1020.5 1020.5 0.0
27/09:00pm 15.4 16.4 13.1 86 1.3 CALM 0 0 0 0 1020.3 1020.3 0.0
27/08:30pm 15.8 16.7 12.9 83 1.6 CALM 0 0 0 0 1020.1 1020.1 0.0
27/08:00pm 16.5 17.3 12.7 78 2.1 CALM 0 0 0 0 1019.7 1019.7 0.0
27/07:30pm 17.7 18.7 13.2 75 2.5 CALM 0 2 0 1 1019.4 1019.4 0.0
27/07:00pm 19.0 19.8 12.5 66 3.6 CALM 0 6 0 3 1019.1 1019.1 0.0
27/06:30pm 20.8 19.5 11.2 54 5.3 ESE 9 11 5 6 1018.7 1018.7 0.0
27/06:00pm 22.1 20.1 10.3 47 6.4 SSE 11 15 6 8 1018.5 1018.5 0.0
27/05:30pm 22.6 20.0 9.4 43 7.1 SSE 13 19 7 10 1018.2 1018.2 0.0
27/05:00pm 22.9 19.2 9.3 42 7.3 SE 19 22 10 12 1018.0 1018.0 0.0
27/04:30pm 23.6 20.6 9.2 40 7.8 SSE 15 20 8 11 1017.8 1017.8 0.0
27/04:00pm 23.4 20.7 10.5 44 7.1 SE 15 20 8 11 1018.0 1018.0 0.0
27/03:30pm 23.9 20.9 10.6 43 7.4 SSE 17 26 9 14 1018.1 1018.1 0.0
27/03:00pm 24.0 21.1 12.3 48 6.7 SE 19 28 10 15 1018.4 1018.4 0.0
27/02:30pm 24.0 20.6 11.3 45 7.1 SSE 20 26 11 14 1018.6 1018.6 0.0
27/02:00pm 23.1 19.4 11.5 48 6.5 SSE 22 28 12 15 1018.8 1018.8 0.0
27/01:30pm 24.1 22.6 10.7 43 7.4 S 9 17 5 9 1019.0 1019.0 0.0
27/01:00pm 23.9 23.2 11.9 47 6.8 S 7 15 4 8 1019.3 1019.3 0.0
27/12:30pm 23.5 21.9 11.5 47 6.7 SSE 11 17 6 9 1019.8 1019.8 0.0
27/12:00pm 22.6 20.8 10.7 47 6.5 SSE 11 19 6 10 1020.0 1020.0 0.0
27/11:30am 22.2 20.1 11.0 49 6.2 S 13 19 7 10 1020.2 1020.2 0.0
27/11:00am 22.0 20.5 10.5 48 6.3 SW 9 15 5 8 1020.3 1020.3 0.0
27/10:30am 22.0 19.3 10.5 48 6.3 S 15 20 8 11 1020.4 1020.4 0.0
27/10:00am 21.1 18.5 9.4 47 6.2 SSW 13 19 7 10 1020.5 1020.5 0.0
27/09:30am 20.6 17.4 10.1 51 5.7 SSW 17 22 9 12 1020.5 1020.5 0.0
27/09:00am 19.9 16.7 9.8 52 5.4 SW 17 22 9 12 1020.4 1020.4 0.0
27/08:30am 18.9 16.4 9.7 55 4.9 SSW 13 20 7 11 1020.4 1020.4 0.0
27/08:00am 17.7 16.5 11.7 68 3.3 SW 9 11 5 6 1020.1 1020.1 0.0
27/07:30am 15.6 14.4 11.6 77 2.2 SW 9 11 5 6 1019.7 1019.7 0.0
27/07:00am 15.6 13.5 11.0 74 2.4 WSW 13 15 7 8 1019.3 1019.3 0.0
27/06:30am 15.5 14.0 10.7 73 2.5 WSW 9 11 5 6 1018.9 1018.9 0.0
27/06:00am 16.2 14.1 9.8 66 3.3 WSW 11 13 6 7 1018.4 1018.4 0.0
27/05:30am 16.2 14.9 11.2 72 2.7 SW 9 13 5 7 1018.1 1018.1 0.0
27/05:00am 17.4 15.4 10.3 63 3.8 WSW 11 13 6 7 1017.9 1017.9 0.0
27/04:30am 18.7 16.7 10.0 57 4.6 SW 11 15 6 8 1017.7 1017.7 0.0
27/04:00am 19.1 16.6 10.9 59 4.4 SW 15 20 8 11 1017.4 1017.4 0.0
27/03:30am 19.5 17.1 11.3 59 4.5 SW 15 20 8 11 1017.4 1017.4 0.0
27/03:00am 19.4 17.7 13.6 69 3.3 SW 15 17 8 9 1017.4 1017.4 0.0
27/02:30am 20.2 19.1 15.2 73 2.9 SW 15 24 8 13 1017.4 1017.4 0.0
27/02:00am 20.5 19.7 17.1 81 2.1 SW 17 26 9 14 1017.5 1017.5 0.0
27/01:30am 21.5 23.9 20.8 96 0.5 SW 9 15 5 8 1017.5 1017.5 0.0
27/01:00am 21.5 24.3 20.8 96 0.5 SW 7 9 4 5 1017.4 1017.4 0.0
27/12:30am 21.8 24.5 21.3 97 0.3 SW 9 11 5 6 1017.3 1017.3 0.0
27/12:00am 22.0 24.8 21.5 97 0.3 SW 9 9 5 5 1017.2 1017.2 0.0
 
Date/Time
EDT
Temp
°C
App
Temp
°C
Dew
Point
Rel
Hum
%
Delta-T
°C
Wind Press
QNH
hPa
Press
MSL
hPa
Rain
since 9 am
mm
Dir
 
Spd
km/h
Gust
km/h
Spd
kts
Gust
kts
26/11:30pm 22.3 25.2 21.8 97 0.3 SW 9 11 5 6 1017.3 1017.3 0.0
26/11:00pm 22.4 25.7 21.9 97 0.3 SW 7 11 4 6 1017.3 1017.3 0.0
26/10:30pm 22.7 26.2 22.2 97 0.3 SW 7 9 4 5 1017.6 1017.6 0.0
26/10:00pm 23.0 26.2 22.3 96 0.5 SW 9 9 5 5 1017.5 1017.5 0.0
26/09:30pm 22.9 26.4 22.1 95 0.5 SW 7 9 4 5 1017.3 1017.3 0.0
26/09:00pm 23.4 28.3 22.4 94 0.7 CALM 0 0 0 0 1017.1 1017.1 0.0
26/08:51pm 23.5 28.5 22.5 94 0.7 CALM 0 0 0 0 1017.0 1017.0 0.0
26/08:50pm 23.5 28.4 22.3 93 0.8 CALM 0 0 0 0 1016.9 - 0.0
26/08:36pm 23.9 29.1 22.9 94 0.7 CALM 0 0 0 0 1016.8 1016.8 0.0
26/08:35pm 23.9 29.1 22.9 94 0.7 CALM 0 0 0 0 1016.8 - 0.0
26/08:30pm 23.8 28.9 22.6 93 0.8 CALM 0 0 0 0 1016.8 1016.8 0.0

Other Formats:

Comma delimited format used in spreadsheet applications
http://www.bom.gov.au/fwo/IDN60801/IDN60801.94786.axf

JavaScript Object Notation format (JSON) in row-major order
http://www.bom.gov.au/fwo/IDN60801/IDN60801.94786.json